Time;durP1;ratioP1;P1;durP2;ratioP2;P2;SDS_P1;SDS_P2;PMS_P1;PMS_P2;Temp;Humidity;BMP_temperature;BMP_pressure;BME280_temperature;BME280_humidity;BME280_pressure;Samples;Min_cycle;Max_cycle;Signal;HPM_P1;HPM_P2
2022/01/17 00:00:45;;;;;;;;;;;3.70;99.90;;;;;;4991167;28;20159;-70
2022/01/17 00:03:12;;;;;;;;;;;3.70;99.90;;;;;;5008208;28;20068;-68
2022/01/17 00:05:39;;;;;;;;;;;3.70;99.90;;;;;;4991665;28;20169;-71
2022/01/17 00:08:07;;;;;;;;;;;3.80;99.90;;;;;;4991472;28;20153;-71
2022/01/17 00:10:34;;;;;;;;;;;3.80;99.90;;;;;;4991072;28;20193;-70
2022/01/17 00:13:01;;;;;;;;;;;3.80;99.90;;;;;;4991406;28;21028;-70
2022/01/17 00:15:41;;;;;;;;;;;3.80;99.90;;;;;;4991630;28;20060;-70
2022/01/17 00:18:26;;;;;;;;;;;3.80;99.90;;;;;;4991325;28;20058;-70
2022/01/17 00:20:53;;;;;;;;;;;3.80;99.90;;;;;;4990896;28;21269;-71
2022/01/17 00:23:20;;;;;;;;;;;3.80;99.90;;;;;;4991259;28;20058;-70
2022/01/17 00:25:47;;;;;;;;;;;3.80;99.90;;;;;;4991468;28;20542;-71
2022/01/17 00:28:14;;;;;;;;;;;3.80;99.90;;;;;;4991572;28;20089;-70
2022/01/17 00:30:43;;;;;;;;;;;3.80;99.90;;;;;;4990954;28;20060;-70
2022/01/17 00:33:11;;;;;;;;;;;3.80;99.90;;;;;;4991227;28;20067;-70
2022/01/17 00:35:38;;;;;;;;;;;3.80;99.90;;;;;;4991590;28;20069;-70
2022/01/17 00:38:05;;;;;;;;;;;3.80;99.90;;;;;;4989764;28;20074;-71
2022/01/17 00:40:32;;;;;;;;;;;3.80;99.90;;;;;;4989740;28;20075;-69
2022/01/17 00:42:59;;;;;;;;;;;3.80;99.90;;;;;;4990937;28;21103;-70
2022/01/17 00:45:29;;;;;;;;;;;3.80;99.90;;;;;;4991070;28;20090;-70
2022/01/17 00:48:00;;;;;;;;;;;3.80;99.90;;;;;;4990095;28;21291;-70
2022/01/17 00:50:28;;;;;;;;;;;3.80;99.90;;;;;;4990257;28;20060;-70
2022/01/17 00:52:55;;;;;;;;;;;3.90;99.90;;;;;;4990462;28;20173;-71
2022/01/17 00:55:22;;;;;;;;;;;3.90;99.90;;;;;;5007078;28;20051;-71
2022/01/17 00:57:49;;;;;;;;;;;3.90;99.90;;;;;;4987625;28;20096;-71
2022/01/17 01:00:16;;;;;;;;;;;3.90;99.90;;;;;;4987532;28;21153;-70
2022/01/17 01:02:44;;;;;;;;;;;3.90;99.90;;;;;;4988212;28;20060;-70
2022/01/17 01:05:12;;;;;;;;;;;3.90;99.90;;;;;;4987638;28;20061;-70
2022/01/17 01:07:40;;;;;;;;;;;3.90;99.90;;;;;;4988695;28;21208;-71
2022/01/17 01:10:10;;;;;;;;;;;4.00;99.90;;;;;;4988125;28;20179;-70
2022/01/17 01:12:38;;;;;;;;;;;4.00;99.90;;;;;;4989323;28;20059;-70
2022/01/17 01:15:09;;;;;;;;;;;4.00;99.90;;;;;;4989193;28;20060;-71
2022/01/17 01:17:48;;;;;;;;;;;4.00;99.90;;;;;;4988013;28;20273;-70
2022/01/17 01:20:25;;;;;;;;;;;4.00;99.90;;;;;;4987920;28;20584;-71
2022/01/17 01:28:21;;;;;;;;;;;4.00;99.90;;;;;;4988267;28;20269;-71
2022/01/17 01:30:52;;;;;;;;;;;4.10;99.90;;;;;;4987115;28;21234;-70
2022/01/17 01:33:25;;;;;;;;;;;4.00;99.90;;;;;;4988008;28;20082;-71
2022/01/17 01:36:00;;;;;;;;;;;4.00;99.90;;;;;;4988189;28;20051;-70
2022/01/17 01:38:27;;;;;;;;;;;4.10;99.90;;;;;;4986784;28;20074;-70
2022/01/17 01:40:54;;;;;;;;;;;4.10;99.90;;;;;;4987632;28;20051;-71
2022/01/17 01:43:22;;;;;;;;;;;4.10;99.90;;;;;;4987814;28;20051;-70
2022/01/17 01:45:49;;;;;;;;;;;4.10;99.90;;;;;;4987832;28;20161;-71
2022/01/17 01:48:18;;;;;;;;;;;4.10;99.90;;;;;;4987744;28;20059;-70
2022/01/17 01:50:46;;;;;;;;;;;4.20;99.90;;;;;;4986769;28;20079;-70
2022/01/17 01:53:14;;;;;;;;;;;4.20;99.90;;;;;;4987174;28;20086;-71
2022/01/17 01:55:41;;;;;;;;;;;4.20;99.90;;;;;;4987984;28;20059;-71
2022/01/17 01:58:12;;;;;;;;;;;4.20;99.90;;;;;;4987675;28;20181;-71
2022/01/17 02:00:39;;;;;;;;;;;4.20;99.90;;;;;;4986186;28;20076;-70
2022/01/17 02:03:06;;;;;;;;;;;4.20;99.90;;;;;;5004378;28;20060;-71
2022/01/17 02:05:34;;;;;;;;;;;4.20;99.90;;;;;;4986758;28;20153;-71
2022/01/17 02:08:01;;;;;;;;;;;4.20;99.90;;;;;;4987419;28;21091;-71
2022/01/17 02:10:30;;;;;;;;;;;4.20;99.90;;;;;;4986373;28;20060;-71
2022/01/17 02:12:57;;;;;;;;;;;4.20;99.90;;;;;;4987353;28;20052;-68
2022/01/17 02:15:24;;;;;;;;;;;4.20;99.90;;;;;;4987413;28;20088;-70
2022/01/17 02:17:55;;;;;;;;;;;4.30;99.90;;;;;;4987052;28;20165;-71
2022/01/17 02:20:27;;;;;;;;;;;4.30;99.90;;;;;;4985875;28;20058;-71
2022/01/17 02:22:54;;;;;;;;;;;4.30;99.90;;;;;;4986971;28;20060;-71
2022/01/17 02:25:21;;;;;;;;;;;4.30;99.90;;;;;;4986961;28;20068;-71
2022/01/17 02:27:48;;;;;;;;;;;4.30;99.90;;;;;;4986728;28;21224;-71
2022/01/17 02:30:17;;;;;;;;;;;4.30;99.90;;;;;;4968331;28;20051;-71
2022/01/17 02:32:44;;;;;;;;;;;4.30;99.90;;;;;;4979999;28;20052;-70
2022/01/17 02:35:12;;;;;;;;;;;4.30;99.90;;;;;;4987376;28;20132;-71
2022/01/17 02:37:40;;;;;;;;;;;4.30;99.90;;;;;;4986068;28;20060;-71
2022/01/17 02:40:08;;;;;;;;;;;4.30;99.90;;;;;;4985873;28;20060;-71
2022/01/17 02:42:36;;;;;;;;;;;4.30;99.90;;;;;;4987315;28;20133;-70
2022/01/17 02:45:11;;;;;;;;;;;4.30;99.90;;;;;;4987078;28;20051;-67
2022/01/17 02:47:38;;;;;;;;;;;4.30;99.90;;;;;;4987149;28;20058;-71
2022/01/17 02:50:06;;;;;;;;;;;4.30;99.90;;;;;;4985683;28;20081;-72
2022/01/17 02:52:33;;;;;;;;;;;4.30;99.90;;;;;;4986695;28;20194;-70
2022/01/17 02:55:02;;;;;;;;;;;4.30;99.90;;;;;;4986673;28;20076;-70
2022/01/17 02:57:32;;;;;;;;;;;4.30;99.90;;;;;;4986837;28;20069;-71
2022/01/17 02:59:59;;;;;;;;;;;4.30;99.90;;;;;;4985726;28;20068;-71
2022/01/17 03:02:26;;;;;;;;;;;4.30;99.90;;;;;;4986500;28;20060;-70
2022/01/17 03:04:53;;;;;;;;;;;4.30;99.90;;;;;;5003032;28;20084;-70
2022/01/17 03:07:20;;;;;;;;;;;4.40;99.90;;;;;;4986198;28;20138;-72
2022/01/17 03:10:01;;;;;;;;;;;4.40;99.90;;;;;;4985532;28;20161;-71
2022/01/17 03:12:30;;;;;;;;;;;4.40;99.90;;;;;;4987289;28;20136;-70
2022/01/17 03:14:57;;;;;;;;;;;4.40;99.90;;;;;;4986404;28;21206;-70
2022/01/17 03:17:24;;;;;;;;;;;4.40;99.90;;;;;;4986043;28;20051;-71
2022/01/17 03:19:51;;;;;;;;;;;4.40;99.90;;;;;;4985517;28;20084;-70
2022/01/17 03:22:18;;;;;;;;;;;4.40;99.90;;;;;;4988991;28;20100;-70
2022/01/17 03:24:45;;;;;;;;;;;4.40;99.90;;;;;;4990537;28;20051;-72
2022/01/17 03:27:13;;;;;;;;;;;4.40;99.90;;;;;;4990331;28;20099;-70
2022/01/17 03:29:41;;;;;;;;;;;4.40;99.90;;;;;;4988990;28;20141;-72
2022/01/17 03:32:08;;;;;;;;;;;4.40;99.90;;;;;;4989893;28;20060;-71
2022/01/17 03:34:36;;;;;;;;;;;4.40;99.90;;;;;;4990772;28;21155;-71
2022/01/17 03:37:03;;;;;;;;;;;4.40;99.90;;;;;;4989971;28;21163;-70
2022/01/17 03:39:31;;;;;;;;;;;4.40;99.90;;;;;;4989252;28;20117;-72
2022/01/17 03:41:58;;;;;;;;;;;4.40;99.90;;;;;;4990320;28;20153;-70
2022/01/17 03:44:25;;;;;;;;;;;4.40;99.90;;;;;;4990032;28;20052;-70
2022/01/17 03:46:54;;;;;;;;;;;4.40;99.90;;;;;;4989538;28;21256;-70
2022/01/17 03:49:21;;;;;;;;;;;4.40;99.90;;;;;;4989035;28;20075;-71
2022/01/17 03:51:48;;;;;;;;;;;4.50;99.90;;;;;;4990121;28;20141;-70
2022/01/17 03:54:16;;;;;;;;;;;4.50;99.90;;;;;;4990188;28;20092;-72
2022/01/17 03:56:43;;;;;;;;;;;4.50;99.90;;;;;;4990009;28;20052;-70
2022/01/17 03:59:11;;;;;;;;;;;4.50;99.90;;;;;;4988625;28;20051;-70
2022/01/17 04:01:40;;;;;;;;;;;4.50;99.90;;;;;;4990099;28;20058;-70
2022/01/17 04:04:08;;;;;;;;;;;4.50;99.90;;;;;;4990170;28;20267;-69
2022/01/17 04:06:36;;;;;;;;;;;4.40;99.90;;;;;;4990560;28;21198;-72
2022/01/17 04:09:03;;;;;;;;;;;4.30;99.90;;;;;;4988901;28;20152;-69
2022/01/17 04:11:30;;;;;;;;;;;4.40;99.90;;;;;;4977372;28;20116;-71
2022/01/17 04:13:57;;;;;;;;;;;4.40;99.90;;;;;;4980277;28;20153;-70
2022/01/17 04:16:25;;;;;;;;;;;4.40;99.90;;;;;;4984010;28;20153;-71
2022/01/17 04:18:53;;;;;;;;;;;4.30;99.90;;;;;;4969321;28;21064;-69
2022/01/17 04:21:21;;;;;;;;;;;4.30;99.90;;;;;;4970410;28;20052;-70
2022/01/17 04:23:48;;;;;;;;;;;4.20;99.90;;;;;;4970631;28;20069;-70
2022/01/17 04:26:15;;;;;;;;;;;4.20;99.90;;;;;;4969569;28;20076;-70
2022/01/17 04:28:42;;;;;;;;;;;4.20;99.90;;;;;;4969469;28;20583;-70
2022/01/17 04:31:10;;;;;;;;;;;4.30;99.90;;;;;;4969701;28;20061;-70
2022/01/17 04:33:37;;;;;;;;;;;4.30;99.90;;;;;;4970238;28;20067;-70
2022/01/17 04:36:06;;;;;;;;;;;4.30;99.90;;;;;;4970728;28;21145;-69
2022/01/17 04:38:35;;;;;;;;;;;4.30;99.90;;;;;;4968594;28;20067;-71
2022/01/17 04:41:05;;;;;;;;;;;4.30;99.90;;;;;;4969611;28;20141;-68
2022/01/17 04:43:56;;;;;;;;;;;4.20;99.90;;;;;;4970206;28;21081;-70
2022/01/17 04:46:23;;;;;;;;;;;4.20;99.90;;;;;;4970406;28;20155;-70
2022/01/17 04:48:50;;;;;;;;;;;4.20;99.90;;;;;;4968941;28;20162;-68
2022/01/17 04:51:17;;;;;;;;;;;4.20;99.90;;;;;;4970189;28;20088;-70
2022/01/17 04:54:04;;;;;;;;;;;4.30;99.90;;;;;;4969907;28;21264;-71
2022/01/17 04:56:31;;;;;;;;;;;4.30;99.90;;;;;;4970132;28;20060;-71
2022/01/17 04:58:58;;;;;;;;;;;4.30;99.90;;;;;;4968645;28;20068;-70
2022/01/17 05:01:25;;;;;;;;;;;4.30;99.90;;;;;;4969294;28;20052;-71
2022/01/17 05:03:52;;;;;;;;;;;4.40;99.90;;;;;;4970057;28;20163;-70
2022/01/17 05:06:19;;;;;;;;;;;4.40;99.90;;;;;;4969303;28;20067;-70
2022/01/17 05:08:48;;;;;;;;;;;4.50;99.90;;;;;;4968815;28;20163;-69
2022/01/17 05:11:16;;;;;;;;;;;4.50;99.90;;;;;;4969044;28;21183;-70
2022/01/17 05:13:47;;;;;;;;;;;4.50;99.90;;;;;;4969238;28;20059;-70
2022/01/17 05:16:16;;;;;;;;;;;4.60;99.90;;;;;;4969442;28;20090;-70
2022/01/17 05:21:27;;;;;;;;;;;4.60;99.90;;;;;;4969284;28;20048;-70
2022/01/17 05:23:56;;;;;;;;;;;4.70;99.90;;;;;;4969276;28;20069;-70
2022/01/17 05:26:23;;;;;;;;;;;4.70;99.90;;;;;;4968946;28;20059;-70
2022/01/17 05:28:50;;;;;;;;;;;4.80;99.90;;;;;;4968325;28;20091;-70
2022/01/17 05:31:17;;;;;;;;;;;4.80;99.90;;;;;;4969295;28;20141;-70
2022/01/17 05:33:44;;;;;;;;;;;4.80;99.90;;;;;;4969110;28;20052;-72
2022/01/17 05:36:11;;;;;;;;;;;4.80;99.90;;;;;;4969222;28;21037;-71
2022/01/17 05:38:38;;;;;;;;;;;4.80;99.90;;;;;;4967984;28;21138;-70
2022/01/17 05:41:07;;;;;;;;;;;4.80;99.90;;;;;;4967624;28;20162;-70
2022/01/17 05:43:34;;;;;;;;;;;4.80;99.90;;;;;;4968774;28;20067;-70
2022/01/17 05:46:01;;;;;;;;;;;4.80;99.90;;;;;;4969105;28;20108;-70
2022/01/17 05:48:29;;;;;;;;;;;4.80;99.90;;;;;;4967927;28;20067;-70
2022/01/17 05:50:56;;;;;;;;;;;4.80;99.90;;;;;;4967582;28;20075;-70
2022/01/17 05:53:23;;;;;;;;;;;4.80;99.90;;;;;;4968409;28;20084;-71
2022/01/17 05:55:50;;;;;;;;;;;4.80;99.90;;;;;;4968785;28;20133;-70
2022/01/17 05:58:19;;;;;;;;;;;4.80;99.90;;;;;;4968221;28;21058;-70
2022/01/17 06:00:46;;;;;;;;;;;4.80;99.90;;;;;;4966783;28;20060;-70
2022/01/17 06:03:13;;;;;;;;;;;4.80;99.90;;;;;;4954658;28;20083;-69
2022/01/17 06:05:40;;;;;;;;;;;4.80;99.90;;;;;;4976540;28;20074;-70
2022/01/17 06:08:07;;;;;;;;;;;4.80;99.90;;;;;;4967824;28;20127;-69
2022/01/17 06:10:34;;;;;;;;;;;4.80;99.90;;;;;;4947982;28;20133;-70
2022/01/17 06:13:02;;;;;;;;;;;4.80;99.90;;;;;;4948392;28;20076;-70
2022/01/17 06:15:30;;;;;;;;;;;4.80;99.90;;;;;;4949226;28;20069;-70
2022/01/17 06:17:57;;;;;;;;;;;4.90;99.90;;;;;;4948385;28;20150;-69
2022/01/17 06:20:25;;;;;;;;;;;4.80;99.90;;;;;;4959370;28;21081;-71
2022/01/17 06:22:52;;;;;;;;;;;4.80;99.90;;;;;;4984368;28;22830;-71
2022/01/17 06:25:19;;;;;;;;;;;4.80;99.90;;;;;;4968143;28;20308;-72
2022/01/17 06:27:47;;;;;;;;;;;4.80;99.90;;;;;;4967462;28;20112;-71
2022/01/17 06:30:14;;;;;;;;;;;4.70;99.90;;;;;;4967066;28;20067;-72
2022/01/17 06:32:42;;;;;;;;;;;4.70;99.90;;;;;;4968227;28;20067;-70
2022/01/17 06:35:10;;;;;;;;;;;4.70;99.90;;;;;;4968248;28;21094;-72
2022/01/17 06:37:38;;;;;;;;;;;4.70;99.90;;;;;;4964583;28;20061;-71
2022/01/17 06:40:07;;;;;;;;;;;4.70;99.90;;;;;;4947641;28;20069;-69
2022/01/17 06:42:34;;;;;;;;;;;4.70;99.90;;;;;;4948695;28;20163;-70
2022/01/17 06:45:04;;;;;;;;;;;4.70;99.90;;;;;;4949070;28;20074;-70
2022/01/17 06:47:31;;;;;;;;;;;4.60;99.90;;;;;;4948075;28;20052;-69
2022/01/17 06:49:59;;;;;;;;;;;4.70;99.90;;;;;;4947322;28;21112;-69
2022/01/17 06:52:26;;;;;;;;;;;4.60;99.90;;;;;;4948543;28;20194;-71
2022/01/17 06:54:54;;;;;;;;;;;4.60;99.90;;;;;;4947565;28;21242;-70
2022/01/17 06:57:22;;;;;;;;;;;4.60;99.90;;;;;;4946956;28;20171;-69
2022/01/17 06:59:49;;;;;;;;;;;4.60;99.90;;;;;;4946575;28;21147;-70
2022/01/17 07:02:16;;;;;;;;;;;4.60;99.90;;;;;;4948332;28;20184;-71
2022/01/17 07:04:44;;;;;;;;;;;4.60;99.90;;;;;;4948066;28;20163;-72
2022/01/17 07:07:13;;;;;;;;;;;4.60;99.90;;;;;;4948830;28;20163;-71
2022/01/17 07:09:40;;;;;;;;;;;4.60;99.90;;;;;;4946822;28;21059;-69
2022/01/17 07:12:07;;;;;;;;;;;4.70;99.90;;;;;;4976418;28;20150;-71
2022/01/17 07:14:41;;;;;;;;;;;4.70;99.90;;;;;;4966262;28;20074;-71
2022/01/17 07:17:08;;;;;;;;;;;4.70;99.90;;;;;;4972840;28;20051;-72
2022/01/17 07:19:35;;;;;;;;;;;4.70;99.90;;;;;;4965336;28;20187;-71
2022/01/17 07:22:03;;;;;;;;;;;4.70;99.90;;;;;;4947615;28;20082;-72
2022/01/17 07:24:32;;;;;;;;;;;4.70;99.90;;;;;;4963888;28;20163;-73
2022/01/17 07:26:59;;;;;;;;;;;4.70;99.90;;;;;;4947168;28;21010;-68
2022/01/17 07:29:26;;;;;;;;;;;4.70;99.90;;;;;;4960245;28;20120;-71
2022/01/17 07:31:54;;;;;;;;;;;4.70;99.90;;;;;;4971943;28;20060;-69
2022/01/17 07:34:21;;;;;;;;;;;4.70;99.90;;;;;;4971033;28;20168;-70
2022/01/17 07:36:48;;;;;;;;;;;4.80;99.90;;;;;;4964412;28;20069;-71
2022/01/17 07:39:16;;;;;;;;;;;4.80;99.90;;;;;;5010942;23;21891;-70
2022/01/17 07:41:44;;;;;;;;;;;4.80;99.90;;;;;;5015621;28;20076;-70
2022/01/17 07:44:20;;;;;;;;;;;4.80;99.90;;;;;;5008713;28;20074;-68
2022/01/17 07:46:54;;;;;;;;;;;4.80;99.90;;;;;;5007958;28;20050;-67
2022/01/17 07:49:22;;;;;;;;;;;4.90;99.90;;;;;;5008001;28;21071;-68
2022/01/17 07:51:50;;;;;;;;;;;4.90;99.90;;;;;;5007087;28;20077;-68
2022/01/17 07:54:18;;;;;;;;;;;4.90;99.90;;;;;;5007258;28;20169;-67
2022/01/17 07:56:47;;;;;;;;;;;4.90;99.90;;;;;;5020641;28;21301;-67
2022/01/17 07:59:15;;;;;;;;;;;4.90;99.90;;;;;;5026850;28;20057;-68
2022/01/17 08:01:43;;;;;;;;;;;4.90;99.90;;;;;;5027391;28;20067;-69
2022/01/17 08:04:10;;;;;;;;;;;4.90;99.90;;;;;;5026510;28;20165;-68
2022/01/17 08:06:39;;;;;;;;;;;4.90;99.90;;;;;;5026834;28;20060;-68
2022/01/17 08:09:07;;;;;;;;;;;4.90;99.90;;;;;;5028988;28;20079;-70
2022/01/17 08:11:34;;;;;;;;;;;4.90;99.90;;;;;;5024069;28;20068;-74
2022/01/17 08:14:02;;;;;;;;;;;4.90;99.90;;;;;;5021874;28;20083;-69
2022/01/17 08:16:30;;;;;;;;;;;4.90;99.90;;;;;;5006368;28;21481;-69
2022/01/17 08:18:58;;;;;;;;;;;4.90;99.90;;;;;;5024134;28;20074;-70
2022/01/17 08:21:25;;;;;;;;;;;4.90;99.90;;;;;;5011189;28;20067;-69
2022/01/17 08:23:53;;;;;;;;;;;4.90;99.90;;;;;;5010722;28;20087;-70
2022/01/17 08:26:21;;;;;;;;;;;5.00;99.90;;;;;;5011827;28;20075;-69
2022/01/17 08:28:48;;;;;;;;;;;5.00;99.90;;;;;;5010613;28;20190;-69
2022/01/17 08:31:17;;;;;;;;;;;5.00;99.90;;;;;;5013449;28;20098;-69
2022/01/17 08:33:44;;;;;;;;;;;5.00;99.90;;;;;;5021159;28;20067;-70
2022/01/17 08:36:12;;;;;;;;;;;5.00;99.90;;;;;;5023014;28;20083;-70
2022/01/17 08:38:39;;;;;;;;;;;5.00;99.90;;;;;;5016710;28;20068;-69
2022/01/17 08:41:06;;;;;;;;;;;5.10;99.90;;;;;;5008524;28;21059;-70
2022/01/17 08:43:33;;;;;;;;;;;5.10;99.90;;;;;;5010583;28;20068;-69
2022/01/17 08:46:03;;;;;;;;;;;5.10;99.90;;;;;;5010679;28;20051;-71
2022/01/17 08:48:31;;;;;;;;;;;5.10;99.90;;;;;;5010566;28;21076;-70
2022/01/17 08:50:58;;;;;;;;;;;5.20;99.90;;;;;;5009525;28;20073;-70
2022/01/17 08:53:26;;;;;;;;;;;5.20;99.90;;;;;;5009591;28;20051;-70
2022/01/17 08:55:53;;;;;;;;;;;5.30;99.90;;;;;;5007725;28;20060;-70
2022/01/17 08:58:20;;;;;;;;;;;5.30;99.90;;;;;;5009459;28;20068;-72
2022/01/17 09:00:49;;;;;;;;;;;5.40;99.90;;;;;;5019337;28;20081;-71
2022/01/17 09:03:17;;;;;;;;;;;5.40;99.90;;;;;;5028742;28;20314;-71
2022/01/17 09:05:48;;;;;;;;;;;5.40;99.90;;;;;;5029072;28;20059;-69
2022/01/17 09:08:16;;;;;;;;;;;5.50;99.90;;;;;;5029136;28;20076;-71
2022/01/17 09:10:43;;;;;;;;;;;5.50;99.90;;;;;;5027805;28;20189;-69
2022/01/17 09:13:10;;;;;;;;;;;5.50;99.90;;;;;;5028464;28;20051;-70
2022/01/17 09:15:37;;;;;;;;;;;5.50;99.90;;;;;;5029541;28;20067;-71
2022/01/17 09:18:05;;;;;;;;;;;5.50;99.90;;;;;;5029159;28;20059;-70
2022/01/17 09:20:34;;;;;;;;;;;5.50;99.90;;;;;;5026617;28;21199;-70
2022/01/17 09:23:03;;;;;;;;;;;5.50;99.90;;;;;;5010006;28;20068;-71
2022/01/17 09:25:30;;;;;;;;;;;5.60;99.90;;;;;;5012239;28;20060;-71
2022/01/17 09:27:57;;;;;;;;;;;5.60;99.90;;;;;;4989219;28;20073;-70
2022/01/17 09:30:24;;;;;;;;;;;5.60;99.90;;;;;;4988494;28;20060;-70
2022/01/17 09:32:52;;;;;;;;;;;5.60;99.90;;;;;;4989317;28;20130;-71
2022/01/17 09:35:19;;;;;;;;;;;5.60;99.90;;;;;;4988925;28;20075;-70
2022/01/17 09:37:46;;;;;;;;;;;5.60;99.90;;;;;;4989045;28;20058;-70
2022/01/17 09:40:15;;;;;;;;;;;5.60;99.90;;;;;;4982888;28;20069;-70
2022/01/17 09:42:42;;;;;;;;;;;5.70;99.90;;;;;;5011439;28;20101;-70
2022/01/17 09:45:10;;;;;;;;;;;5.80;99.90;;;;;;5021753;28;20073;-69
2022/01/17 09:47:39;;;;;;;;;;;5.80;99.90;;;;;;5008184;28;20067;-69
2022/01/17 09:50:09;;;;;;;;;;;5.90;99.90;;;;;;5003728;28;21150;-69
2022/01/17 09:52:36;;;;;;;;;;;6.00;99.90;;;;;;5018319;28;21102;-70
2022/01/17 09:55:06;;;;;;;;;;;6.00;99.90;;;;;;5027478;28;20067;-70
2022/01/17 09:57:35;;;;;;;;;;;6.10;99.90;;;;;;5023057;28;20068;-70
2022/01/17 10:00:03;;;;;;;;;;;6.10;99.90;;;;;;5010931;28;20189;-69
2022/01/17 10:02:30;;;;;;;;;;;6.10;99.90;;;;;;5023615;28;20059;-69
2022/01/17 10:04:57;;;;;;;;;;;6.10;99.90;;;;;;5028184;28;21143;-69
2022/01/17 10:07:27;;;;;;;;;;;6.20;99.90;;;;;;5027670;28;20054;-70
2022/01/17 10:09:55;;;;;;;;;;;6.20;99.90;;;;;;5024488;28;20161;-69
2022/01/17 10:12:22;;;;;;;;;;;6.20;99.90;;;;;;5018952;28;20059;-68
2022/01/17 10:14:59;;;;;;;;;;;6.20;99.90;;;;;;5007448;28;20082;-69
2022/01/17 10:17:42;;;;;;;;;;;6.20;99.90;;;;;;5009405;28;20076;-70
2022/01/17 10:20:11;;;;;;;;;;;6.20;99.90;;;;;;5005389;28;20054;-69
2022/01/17 10:22:47;;;;;;;;;;;6.20;99.90;;;;;;5006207;28;21144;-70
2022/01/17 10:25:26;;;;;;;;;;;6.20;99.90;;;;;;5006250;28;20066;-68
2022/01/17 10:28:21;;;;;;;;;;;6.20;99.90;;;;;;5023473;28;20251;-68
2022/01/17 10:31:18;;;;;;;;;;;6.20;99.90;;;;;;5024175;28;20197;-68
2022/01/17 10:36:43;;;;;;;;;;;6.20;99.90;;;;;;5007068;28;20077;-68
2022/01/17 10:39:10;;;;;;;;;;;6.40;99.90;;;;;;5005161;28;20051;-69
2022/01/17 10:41:37;;;;;;;;;;;6.40;99.90;;;;;;5006027;28;21096;-68
2022/01/17 10:44:05;;;;;;;;;;;6.40;99.90;;;;;;5006926;28;20139;-68
2022/01/17 10:46:34;;;;;;;;;;;6.50;99.90;;;;;;5007437;28;20060;-68
2022/01/17 10:49:03;;;;;;;;;;;6.40;99.90;;;;;;5006391;28;20170;-69
2022/01/17 10:51:32;;;;;;;;;;;6.70;99.90;;;;;;5007911;28;20068;-69
2022/01/17 10:54:00;;;;;;;;;;;8.00;99.90;;;;;;5002937;28;20248;-69
2022/01/17 10:56:27;;;;;;;;;;;8.40;99.90;;;;;;5014623;28;20060;-69
2022/01/17 10:59:02;;;;;;;;;;;8.10;99.90;;;;;;5005788;28;20060;-68
2022/01/17 11:01:37;;;;;;;;;;;8.00;99.90;;;;;;5005132;28;20271;-69
2022/01/17 11:04:08;;;;;;;;;;;7.80;99.90;;;;;;5004984;28;20059;-69
2022/01/17 11:06:46;;;;;;;;;;;7.60;99.90;;;;;;5006310;28;20060;-69
2022/01/17 11:09:13;;;;;;;;;;;7.30;99.90;;;;;;5004705;28;20060;-69
2022/01/17 11:11:41;;;;;;;;;;;7.30;99.90;;;;;;4992858;28;20059;-69
2022/01/17 11:14:09;;;;;;;;;;;7.20;99.90;;;;;;4987002;28;20067;-68
2022/01/17 11:16:37;;;;;;;;;;;7.10;99.90;;;;;;4986178;28;20060;-69
2022/01/17 11:20:03;;;;;;;;;;;7.00;99.90;;;;;;4984129;28;21052;-69
2022/01/17 11:21:53;;;;;;;;;;;7.00;99.90;;;;;;4984294;28;20066;-69
2022/01/17 11:24:20;;;;;;;;;;;6.80;99.90;;;;;;4986802;28;20060;-69
2022/01/17 11:26:48;;;;;;;;;;;6.70;99.90;;;;;;4986652;28;21298;-69
2022/01/17 11:29:16;;;;;;;;;;;6.70;99.90;;;;;;4985255;28;21215;-70
2022/01/17 11:31:45;;;;;;;;;;;6.60;99.90;;;;;;4985323;28;20071;-68
2022/01/17 11:34:14;;;;;;;;;;;6.60;99.90;;;;;;4990535;28;20060;-69
2022/01/17 11:36:41;;;;;;;;;;;6.60;99.90;;;;;;5005739;28;20234;-68
2022/01/17 11:39:09;;;;;;;;;;;6.60;99.90;;;;;;5004203;28;21175;-69
2022/01/17 11:41:36;;;;;;;;;;;6.50;99.90;;;;;;5005498;28;20081;-68
2022/01/17 11:44:04;;;;;;;;;;;6.50;99.90;;;;;;5007447;28;20058;-69
2022/01/17 11:46:32;;;;;;;;;;;6.60;99.90;;;;;;5020921;28;20180;-71
2022/01/17 11:49:02;;;;;;;;;;;6.60;99.90;;;;;;5034931;28;20059;-69
2022/01/17 11:51:39;;;;;;;;;;;6.60;99.90;;;;;;5018026;28;20195;-69
2022/01/17 11:54:10;;;;;;;;;;;6.60;99.90;;;;;;5014613;28;21206;-70
2022/01/17 11:56:39;;;;;;;;;;;6.70;99.90;;;;;;5010046;28;20067;-70
2022/01/17 11:59:21;;;;;;;;;;;6.80;99.90;;;;;;5009407;28;21161;-70
2022/01/17 12:02:13;;;;;;;;;;;6.80;99.90;;;;;;5010402;28;20140;-70
2022/01/17 12:04:42;;;;;;;;;;;6.70;99.90;;;;;;5026459;28;20051;-70
2022/01/17 12:07:09;;;;;;;;;;;6.70;99.90;;;;;;5030269;28;20059;-70
2022/01/17 12:09:43;;;;;;;;;;;6.60;99.90;;;;;;5029167;28;20059;-70
2022/01/17 12:12:15;;;;;;;;;;;6.60;99.90;;;;;;5030321;28;20066;-69
2022/01/17 12:14:51;;;;;;;;;;;6.60;99.90;;;;;;5029866;28;20051;-70
2022/01/17 12:17:29;;;;;;;;;;;6.50;99.90;;;;;;5029945;28;20058;-70
2022/01/17 12:20:17;;;;;;;;;;;6.50;99.90;;;;;;5028843;28;20074;-70
2022/01/17 12:22:56;;;;;;;;;;;6.50;99.90;;;;;;5030333;28;20059;-70
2022/01/17 12:25:34;;;;;;;;;;;6.40;99.90;;;;;;5029950;28;21065;-70
2022/01/17 12:28:20;;;;;;;;;;;6.40;99.90;;;;;;5030069;28;20059;-70
2022/01/17 12:30:49;;;;;;;;;;;6.40;99.90;;;;;;5028791;28;21098;-70
2022/01/17 12:33:30;;;;;;;;;;;6.40;99.90;;;;;;5029665;28;20261;-70
2022/01/17 12:35:58;;;;;;;;;;;6.40;99.90;;;;;;5029616;28;20067;-70
2022/01/17 12:38:32;;;;;;;;;;;6.40;99.90;;;;;;5030010;28;20082;-70
2022/01/17 12:40:59;;;;;;;;;;;6.40;99.90;;;;;;5028358;28;21137;-70
2022/01/17 12:43:29;;;;;;;;;;;6.40;99.90;;;;;;5023007;28;21112;-70
2022/01/17 12:45:59;;;;;;;;;;;6.40;99.90;;;;;;5023672;28;20206;-69
2022/01/17 12:48:27;;;;;;;;;;;6.40;99.90;;;;;;5009266;28;21145;-70
2022/01/17 12:50:54;;;;;;;;;;;6.40;99.90;;;;;;5008178;28;20122;-70
2022/01/17 12:53:22;;;;;;;;;;;6.40;99.90;;;;;;5009230;28;21071;-69
2022/01/17 12:55:52;;;;;;;;;;;6.40;99.90;;;;;;5009499;28;20068;-69
2022/01/17 12:58:20;;;;;;;;;;;6.40;99.90;;;;;;5009980;28;20153;-70
2022/01/17 13:00:50;;;;;;;;;;;6.40;99.90;;;;;;5007623;28;21003;-70
2022/01/17 13:03:17;;;;;;;;;;;6.40;99.90;;;;;;5008509;28;20140;-71
2022/01/17 13:05:44;;;;;;;;;;;6.40;99.90;;;;;;5007490;28;20052;-70
2022/01/17 13:08:12;;;;;;;;;;;6.40;99.90;;;;;;5006028;28;21123;-71
2022/01/17 13:10:39;;;;;;;;;;;6.50;99.90;;;;;;5003548;28;21081;-70
2022/01/17 13:13:15;;;;;;;;;;;6.50;99.90;;;;;;4989286;28;20051;-71
2022/01/17 13:15:52;;;;;;;;;;;6.50;99.90;;;;;;4988859;28;20269;-71
2022/01/17 13:18:19;;;;;;;;;;;6.50;99.90;;;;;;4988976;28;20133;-69
2022/01/17 13:20:47;;;;;;;;;;;6.50;99.90;;;;;;4987873;28;20065;-69
2022/01/17 13:23:18;;;;;;;;;;;6.50;99.90;;;;;;4989439;28;20162;-70
2022/01/17 13:25:45;;;;;;;;;;;6.50;99.90;;;;;;4989173;28;20071;-70
2022/01/17 13:28:14;;;;;;;;;;;6.50;99.90;;;;;;4989598;28;20108;-70
2022/01/17 13:30:41;;;;;;;;;;;6.50;99.90;;;;;;4987877;28;20060;-70
2022/01/17 13:33:08;;;;;;;;;;;6.50;99.90;;;;;;4988359;28;20060;-71
2022/01/17 13:35:38;;;;;;;;;;;6.50;99.90;;;;;;4988716;28;20082;-70
2022/01/17 13:38:06;;;;;;;;;;;6.50;99.90;;;;;;4989536;28;20174;-69
2022/01/17 13:40:34;;;;;;;;;;;6.50;99.90;;;;;;4986995;28;20132;-69
2022/01/17 13:43:02;;;;;;;;;;;6.50;99.90;;;;;;4988315;28;20074;-70
2022/01/17 13:45:32;;;;;;;;;;;6.50;99.90;;;;;;4987780;28;20150;-70
2022/01/17 13:47:59;;;;;;;;;;;6.50;99.90;;;;;;4988807;28;20066;-71
2022/01/17 13:50:27;;;;;;;;;;;6.40;99.90;;;;;;4987446;28;20162;-71
2022/01/17 13:52:54;;;;;;;;;;;6.40;99.90;;;;;;4988232;28;20069;-71
2022/01/17 13:55:33;;;;;;;;;;;6.30;99.90;;;;;;4987980;28;20162;-71
2022/01/17 13:58:01;;;;;;;;;;;6.30;99.90;;;;;;4988749;28;20065;-71
2022/01/17 14:00:37;;;;;;;;;;;6.30;99.90;;;;;;4998205;28;20088;-70
2022/01/17 14:03:05;;;;;;;;;;;6.30;99.90;;;;;;5020182;28;21493;-71
2022/01/17 14:05:34;;;;;;;;;;;6.20;99.90;;;;;;5025347;28;21168;-69
2022/01/17 14:08:18;;;;;;;;;;;6.20;99.90;;;;;;5027996;28;20066;-69
2022/01/17 14:10:57;;;;;;;;;;;6.30;99.90;;;;;;5021871;28;20077;-69
2022/01/17 14:13:25;;;;;;;;;;;6.20;99.90;;;;;;5009320;28;20164;-69
2022/01/17 14:15:54;;;;;;;;;;;6.20;99.90;;;;;;5019077;28;20169;-71
2022/01/17 14:18:21;;;;;;;;;;;6.20;99.90;;;;;;5009531;28;20082;-70
2022/01/17 14:20:53;;;;;;;;;;;6.30;99.90;;;;;;5002038;28;20148;-70
2022/01/17 14:23:27;;;;;;;;;;;6.30;99.90;;;;;;5002870;28;20060;-70
2022/01/17 14:25:55;;;;;;;;;;;6.40;99.90;;;;;;5003459;28;20225;-74
2022/01/17 14:28:25;;;;;;;;;;;6.40;99.90;;;;;;5003030;28;20068;-72
2022/01/17 14:30:52;;;;;;;;;;;6.40;99.90;;;;;;5002154;28;20060;-70
2022/01/17 14:33:22;;;;;;;;;;;6.40;99.90;;;;;;5005831;28;21155;-69
2022/01/17 14:36:03;;;;;;;;;;;6.40;99.90;;;;;;5006832;28;21108;-75
2022/01/17 14:38:30;;;;;;;;;;;6.40;99.90;;;;;;5007193;28;20051;-70
2022/01/17 14:40:57;;;;;;;;;;;6.40;99.90;;;;;;5005228;28;20140;-70
2022/01/17 14:43:32;;;;;;;;;;;6.40;99.90;;;;;;5007600;28;21070;-67
2022/01/17 14:46:02;;;;;;;;;;;6.40;99.90;;;;;;5011667;28;20189;-70
2022/01/17 14:48:36;;;;;;;;;;;6.30;99.90;;;;;;5020342;28;20063;-70
2022/01/17 14:51:11;;;;;;;;;;;6.40;99.90;;;;;;5027998;28;20074;-70
2022/01/17 14:53:38;;;;;;;;;;;6.40;99.90;;;;;;5028377;28;20058;-69